createdAt,value
2023-03-06T00:01:09.066Z,24.35
2023-03-06T00:03:36.330Z,22.48
2023-03-06T00:06:03.720Z,23.58
2023-03-06T00:08:30.986Z,24.05
2023-03-06T00:10:58.666Z,23.67
2023-03-06T00:13:30.201Z,24.67
2023-03-06T00:16:01.271Z,32.05
2023-03-06T00:18:28.707Z,38.22
2023-03-06T00:20:55.949Z,37.50
2023-03-06T00:23:23.406Z,27.13
2023-03-06T00:25:50.736Z,24.70
2023-03-06T00:28:18.005Z,31.23
2023-03-06T00:30:46.282Z,34.10
2023-03-06T00:33:13.698Z,25.42
2023-03-06T00:35:41.970Z,25.48
2023-03-06T00:38:15.904Z,25.50
2023-03-06T00:40:43.222Z,22.80
2023-03-06T00:43:10.978Z,28.30
2023-03-06T00:45:38.205Z,29.10
2023-03-06T00:48:06.116Z,34.30
2023-03-06T00:50:36.138Z,28.35
2023-03-06T00:53:03.527Z,23.30
2023-03-06T00:55:31.360Z,27.35
2023-03-06T00:58:01.481Z,26.48
2023-03-06T01:00:28.629Z,23.58
2023-03-06T01:02:56.393Z,27.67
2023-03-06T01:05:23.952Z,28.65
2023-03-06T01:07:51.034Z,32.58
2023-03-06T01:10:19.687Z,51.58
2023-03-06T01:12:48.302Z,32.92
2023-03-06T01:15:15.414Z,41.60
2023-03-06T01:17:42.729Z,31.10
2023-03-06T01:20:14.878Z,36.53
2023-03-06T01:22:42.462Z,34.70
2023-03-06T01:25:10.566Z,26.30
2023-03-06T01:27:37.742Z,29.95
2023-03-06T01:30:05.493Z,28.20
2023-03-06T01:32:33.713Z,26.75
2023-03-06T01:35:01.009Z,53.55
2023-03-06T01:37:28.153Z,24.83
2023-03-06T01:39:56.724Z,25.10
2023-03-06T01:42:24.058Z,26.17
2023-03-06T01:45:13.314Z,25.85
2023-03-06T01:47:40.612Z,26.40
2023-03-06T01:50:10.944Z,21.35
2023-03-06T01:52:59.699Z,34.75
2023-03-06T01:55:31.212Z,44.67
2023-03-06T01:58:01.634Z,28.67
2023-03-06T02:00:34.889Z,28.48
2023-03-06T02:03:11.093Z,25.10
2023-03-06T02:05:40.745Z,27.35
2023-03-06T02:08:11.621Z,31.83
2023-03-06T02:10:59.028Z,24.77
2023-03-06T02:13:26.268Z,26.80
2023-03-06T02:15:53.509Z,25.50
2023-03-06T02:18:20.689Z,34.38
2023-03-06T02:20:57.926Z,27.30
2023-03-06T02:23:24.918Z,24.88
2023-03-06T02:25:53.461Z,31.55
2023-03-06T02:28:23.334Z,35.72
2023-03-06T02:30:52.887Z,46.50
2023-03-06T02:33:23.384Z,36.38
2023-03-06T02:35:54.812Z,30.38
2023-03-06T02:38:26.152Z,36.53
2023-03-06T02:40:53.961Z,31.48
2023-03-06T02:43:31.827Z,24.73
2023-03-06T02:45:59.109Z,22.05
2023-03-06T02:48:26.580Z,24.50
2023-03-06T02:50:53.796Z,21.98
2023-03-06T02:53:21.771Z,21.05
2023-03-06T02:55:50.333Z,18.98
2023-03-06T02:58:19.912Z,19.95
2023-03-06T03:00:50.992Z,22.98
2023-03-06T03:03:19.707Z,17.42
2023-03-06T03:05:47.006Z,18.52
2023-03-06T03:08:22.385Z,19.52
2023-03-06T03:10:52.629Z,19.35
2023-03-06T03:13:20.437Z,24.60
2023-03-06T03:16:02.251Z,22.70
2023-03-06T03:18:29.832Z,20.10
2023-03-06T03:20:57.243Z,18.77
2023-03-06T03:23:25.162Z,16.70
2023-03-06T03:25:52.299Z,16.10
2023-03-06T03:28:20.157Z,21.58
2023-03-06T03:30:47.452Z,20.13
2023-03-06T03:33:14.713Z,14.55
2023-03-06T03:35:42.941Z,23.75
2023-03-06T03:38:10.475Z,20.83
2023-03-06T03:40:39.202Z,21.73
2023-03-06T03:43:06.518Z,42.13
2023-03-06T03:45:33.776Z,26.05
2023-03-06T03:48:01.120Z,31.05
2023-03-06T03:50:28.769Z,19.98
2023-03-06T03:52:56.384Z,25.67
2023-03-06T03:55:23.573Z,19.52
2023-03-06T03:57:51.069Z,17.25
2023-03-06T04:00:18.915Z,25.60
2023-03-06T04:02:58.266Z,17.20
2023-03-06T04:05:36.224Z,13.43
2023-03-06T04:08:06.913Z,20.80
2023-03-06T04:10:37.338Z,19.85
2023-03-06T04:13:04.637Z,24.75
2023-03-06T04:15:32.673Z,17.90
2023-03-06T04:18:01.752Z,22.77
2023-03-06T04:20:30.425Z,24.70
2023-03-06T04:22:59.949Z,20.95
2023-03-06T04:25:27.548Z,25.35
2023-03-06T04:27:54.712Z,24.38
2023-03-06T04:30:22.050Z,29.27
2023-03-06T04:32:49.377Z,16.88
2023-03-06T04:35:16.670Z,39.13
2023-03-06T04:37:52.847Z,23.10
2023-03-06T04:40:30.740Z,16.92
2023-03-06T04:42:59.487Z,20.52
2023-03-06T04:45:28.356Z,21.38
2023-03-06T04:47:55.740Z,50.78
2023-03-06T04:50:24.420Z,34.92
2023-03-06T04:52:52.139Z,64.05
2023-03-06T04:55:19.975Z,44.08
2023-03-06T04:57:47.476Z,31.63
2023-03-06T05:00:20.325Z,36.08
2023-03-06T05:02:48.046Z,18.70
2023-03-06T05:05:16.086Z,21.95
2023-03-06T05:07:43.900Z,22.92
2023-03-06T05:10:16.623Z,20.08
2023-03-06T05:12:44.735Z,30.27
2023-03-06T05:15:13.310Z,50.15
2023-03-06T05:17:40.852Z,19.08
2023-03-06T05:20:10.770Z,32.38
2023-03-06T05:22:38.229Z,40.88
2023-03-06T05:25:05.915Z,25.55
2023-03-06T05:27:33.670Z,67.47
2023-03-06T05:30:00.960Z,15.73
2023-03-06T05:32:28.855Z,15.93
2023-03-06T05:34:56.307Z,43.97
2023-03-06T05:37:23.576Z,52.67
2023-03-06T05:39:51.620Z,48.33
2023-03-06T05:42:18.954Z,52.30
2023-03-06T05:44:46.339Z,58.25
2023-03-06T05:47:14.026Z,50.13
2023-03-06T05:49:41.717Z,33.30
2023-03-06T05:52:09.285Z,75.88
2023-03-06T05:54:37.506Z,24.67
2023-03-06T05:57:05.977Z,25.83
2023-03-06T05:59:33.361Z,26.48
2023-03-06T06:02:01.071Z,18.85
2023-03-06T06:04:28.836Z,32.55
2023-03-06T06:06:58.319Z,37.97
2023-03-06T06:09:27.145Z,44.20
2023-03-06T06:11:57.504Z,79.57
2023-03-06T06:14:25.198Z,48.75
2023-03-06T06:16:52.792Z,58.08
2023-03-06T06:19:20.719Z,44.20
2023-03-06T06:21:49.866Z,17.25
2023-03-06T06:24:18.797Z,21.52
2023-03-06T06:26:46.317Z,16.90
2023-03-06T06:29:14.079Z,19.58
2023-03-06T06:31:41.532Z,14.38
2023-03-06T06:34:10.982Z,16.67
2023-03-06T06:36:39.180Z,49.50
2023-03-06T06:39:06.987Z,24.90
2023-03-06T06:41:53.128Z,20.77
2023-03-06T06:44:21.765Z,30.33
2023-03-06T06:47:21.264Z,13.77
2023-03-06T06:49:38.018Z,38.95
2023-03-06T06:52:06.496Z,18.67
2023-03-06T06:54:34.617Z,18.23
2023-03-06T06:57:02.405Z,13.23
2023-03-06T06:59:29.658Z,10.95
2023-03-06T07:01:59.973Z,15.68
2023-03-06T07:04:27.178Z,18.67
2023-03-06T07:06:58.473Z,11.32
2023-03-06T07:09:26.045Z,61.17
2023-03-06T07:11:53.250Z,36.47
2023-03-06T07:14:20.536Z,37.47
2023-03-06T07:16:47.731Z,17.27
2023-03-06T07:19:15.073Z,32.58
2023-03-06T07:21:42.132Z,15.25
2023-03-06T07:24:09.409Z,38.47
2023-03-06T07:26:36.756Z,17.60
2023-03-06T07:29:05.399Z,12.48
2023-03-06T07:31:32.728Z,15.98
2023-03-06T07:34:00.531Z,20.92
2023-03-06T07:36:28.690Z,36.97
2023-03-06T07:38:55.847Z,13.45
2023-03-06T07:41:29.158Z,10.30
2023-03-06T07:43:56.192Z,13.85
2023-03-06T07:46:23.284Z,8.95
2023-03-06T07:48:51.542Z,13.95
2023-03-06T07:51:21.518Z,9.88
2023-03-06T07:53:49.860Z,9.60
2023-03-06T07:56:17.643Z,15.07
2023-03-06T07:58:47.371Z,14.43
2023-03-06T08:01:17.882Z,12.07
2023-03-06T08:03:45.325Z,16.15
2023-03-06T08:06:17.928Z,16.02
2023-03-06T08:08:47.233Z,11.85
2023-03-06T08:11:16.532Z,14.05
2023-03-06T08:13:44.306Z,12.35
2023-03-06T08:16:12.037Z,12.07
2023-03-06T08:18:46.500Z,12.35
2023-03-06T08:21:16.016Z,12.35
2023-03-06T08:23:43.838Z,9.18
2023-03-06T08:26:17.013Z,10.88
2023-03-06T08:28:44.422Z,9.20
2023-03-06T08:31:30.381Z,17.58
2023-03-06T08:33:59.531Z,12.70
2023-03-06T08:36:28.275Z,13.65
2023-03-06T08:38:55.777Z,8.88
2023-03-06T08:41:22.892Z,7.32
2023-03-06T08:43:50.283Z,14.82
2023-03-06T08:46:19.023Z,17.88
2023-03-06T08:48:48.101Z,15.40
2023-03-06T08:51:16.426Z,7.95
2023-03-06T08:53:44.578Z,13.50
2023-03-06T08:56:28.303Z,15.50
2023-03-06T08:58:57.057Z,22.27
2023-03-06T09:01:32.319Z,10.07
2023-03-06T09:04:02.061Z,9.80
2023-03-06T09:06:32.723Z,7.18
2023-03-06T09:09:00.480Z,10.32
2023-03-06T09:11:28.714Z,10.65
2023-03-06T09:13:57.049Z,9.40
2023-03-06T09:16:24.663Z,11.93
2023-03-06T09:18:53.204Z,8.40
2023-03-06T09:21:22.209Z,4.00
2023-03-06T09:23:49.475Z,5.68
2023-03-06T09:26:16.574Z,11.35
2023-03-06T09:28:43.655Z,5.67
2023-03-06T09:31:16.822Z,4.57
2023-03-06T09:33:43.837Z,9.52
2023-03-06T09:36:18.323Z,4.50
2023-03-06T09:38:48.122Z,5.35
2023-03-06T09:41:24.304Z,8.40
2023-03-06T09:43:58.249Z,3.85
2023-03-06T09:46:32.634Z,24.42
2023-03-06T09:49:18.319Z,3.42
2023-03-06T09:51:54.991Z,4.00
2023-03-06T09:54:34.611Z,3.92
2023-03-06T09:57:01.538Z,3.15
2023-03-06T09:59:28.999Z,6.55
2023-03-06T10:02:18.211Z,3.25
2023-03-06T10:04:50.999Z,10.75
2023-03-06T10:07:26.197Z,3.30
2023-03-06T10:10:04.327Z,2.92
2023-03-06T10:12:40.297Z,3.65
2023-03-06T10:15:16.607Z,7.78
2023-03-06T10:17:44.974Z,4.32
2023-03-06T10:20:27.925Z,8.52
2023-03-06T10:23:34.977Z,6.25
2023-03-06T10:26:13.384Z,4.57
2023-03-06T10:28:51.958Z,11.75
2023-03-06T10:31:24.373Z,8.35
2023-03-06T10:34:09.956Z,7.80
2023-03-06T10:36:37.283Z,5.07
2023-03-06T10:39:14.261Z,5.07
2023-03-06T10:41:41.284Z,5.00
2023-03-06T10:44:09.488Z,4.43
2023-03-06T10:46:44.796Z,5.00
2023-03-06T10:49:37.007Z,5.55
2023-03-06T10:52:21.247Z,4.93
2023-03-06T10:54:48.568Z,5.13
2023-03-06T10:57:32.152Z,3.47
2023-03-06T11:00:04.547Z,4.30
2023-03-06T11:02:46.971Z,7.15
2023-03-06T11:05:21.423Z,4.72
2023-03-06T11:07:57.195Z,8.43
2023-03-06T11:10:24.596Z,4.35
2023-03-06T11:13:10.561Z,5.22
2023-03-06T11:15:37.640Z,5.47
2023-03-06T11:18:10.574Z,7.03
2023-03-06T11:20:51.400Z,11.63
2023-03-06T11:23:39.475Z,6.35
2023-03-06T11:26:15.673Z,4.82
2023-03-06T11:29:06.746Z,8.10
2023-03-06T11:32:10.179Z,4.78
2023-03-06T11:34:52.355Z,10.60
2023-03-06T11:37:51.450Z,5.25
2023-03-06T11:40:28.485Z,23.95
2023-03-06T11:43:06.385Z,7.60
2023-03-06T11:45:51.677Z,5.45
2023-03-06T11:48:25.026Z,7.05
2023-03-06T11:51:06.614Z,14.35
2023-03-06T11:53:38.306Z,16.52
2023-03-06T11:56:40.056Z,9.80
2023-03-06T11:59:28.214Z,5.72
2023-03-06T12:02:06.280Z,6.20
2023-03-06T12:04:48.899Z,7.10
2023-03-06T12:07:36.039Z,5.13
2023-03-06T12:10:27.967Z,4.50
2023-03-06T12:13:33.293Z,18.52
2023-03-06T12:16:28.037Z,5.72
2023-03-06T12:19:22.872Z,4.63
2023-03-06T12:22:26.800Z,6.20
2023-03-06T12:25:09.534Z,5.13
2023-03-06T12:28:15.665Z,11.43
2023-03-06T12:33:27.937Z,3.90
2023-03-06T12:35:58.621Z,4.70
2023-03-06T12:38:31.451Z,6.07
2023-03-06T12:41:08.277Z,6.53
2023-03-06T12:43:47.299Z,3.47
2023-03-06T12:46:21.704Z,3.95
2023-03-06T12:49:04.600Z,5.10
2023-03-06T12:51:33.512Z,6.90
2023-03-06T12:54:02.473Z,8.18
2023-03-06T12:56:32.055Z,21.05
2023-03-06T12:59:02.852Z,5.78
2023-03-06T13:01:48.643Z,16.05
2023-03-06T13:04:33.954Z,5.97
2023-03-06T13:09:55.218Z,5.97
2023-03-06T13:15:43.350Z,3.22
2023-03-06T13:18:22.504Z,4.97
2023-03-06T13:20:58.838Z,5.80
2023-03-06T13:23:43.154Z,5.43
2023-03-06T13:26:25.427Z,3.42
2023-03-06T13:28:58.195Z,3.97
2023-03-06T13:31:29.568Z,6.43
2023-03-06T13:33:58.427Z,7.47
2023-03-06T13:36:27.420Z,9.05
2023-03-06T13:39:10.123Z,6.90
2023-03-06T13:41:42.229Z,5.80
2023-03-06T13:44:32.486Z,6.22
2023-03-06T13:47:02.716Z,13.10
2023-03-06T13:49:30.428Z,5.80
2023-03-06T13:52:10.765Z,4.82
2023-03-06T13:55:00.816Z,10.02
2023-03-06T13:58:04.016Z,6.85
2023-03-06T14:00:30.968Z,5.65
2023-03-06T14:03:22.426Z,8.50
2023-03-06T14:05:51.863Z,5.97
2023-03-06T14:08:21.910Z,7.57
2023-03-06T14:11:00.738Z,6.78
2023-03-06T14:13:45.287Z,8.25
2023-03-06T14:16:22.026Z,5.05
2023-03-06T14:18:52.134Z,5.32
2023-03-06T14:21:31.118Z,5.97
2023-03-06T14:24:03.107Z,5.35
2023-03-06T14:26:40.260Z,7.30
2023-03-06T14:29:20.626Z,5.65
2023-03-06T14:31:51.019Z,5.07
2023-03-06T14:34:24.500Z,4.45
2023-03-06T14:36:55.038Z,3.90
2023-03-06T14:39:34.209Z,5.25
2023-03-06T14:42:25.942Z,6.30
2023-03-06T14:45:06.249Z,9.13
2023-03-06T14:47:35.530Z,5.28
2023-03-06T14:50:25.658Z,7.50
2023-03-06T14:52:57.178Z,5.22
2023-03-06T14:55:27.070Z,5.38
2023-03-06T14:58:08.251Z,9.18
2023-03-06T15:00:41.060Z,7.18
2023-03-06T15:03:18.591Z,6.32
2023-03-06T15:05:47.534Z,12.85
2023-03-06T15:08:20.967Z,6.10
2023-03-06T15:10:57.155Z,5.70
2023-03-06T15:13:26.952Z,7.28
2023-03-06T15:15:56.773Z,16.77
2023-03-06T15:18:54.354Z,11.35
2023-03-06T15:21:24.157Z,7.70
2023-03-06T15:23:53.066Z,8.45
2023-03-06T15:26:37.969Z,7.03
2023-03-06T15:29:11.144Z,8.40
2023-03-06T15:31:40.660Z,27.88
2023-03-06T15:34:07.885Z,7.32
2023-03-06T15:36:54.403Z,6.88
2023-03-06T15:39:33.954Z,8.18
2023-03-06T15:42:28.165Z,13.85
2023-03-06T15:44:57.967Z,12.63
2023-03-06T15:47:25.143Z,8.98
2023-03-06T15:49:53.355Z,10.52
2023-03-06T15:52:21.261Z,13.45
2023-03-06T15:54:48.448Z,8.77
2023-03-06T15:57:29.456Z,14.80
2023-03-06T15:59:58.408Z,10.02
2023-03-06T16:02:25.794Z,13.80
2023-03-06T16:04:53.204Z,9.05
2023-03-06T16:07:20.871Z,14.20
2023-03-06T16:09:48.025Z,8.35
2023-03-06T16:12:20.674Z,18.27
2023-03-06T16:14:49.142Z,7.97
2023-03-06T16:17:17.204Z,10.73
2023-03-06T16:19:44.325Z,14.27
2023-03-06T16:22:11.482Z,10.00
2023-03-06T16:24:38.812Z,12.70
2023-03-06T16:27:07.157Z,9.10
2023-03-06T16:29:35.260Z,8.23
2023-03-06T16:32:02.703Z,8.80
2023-03-06T16:34:29.853Z,8.10
2023-03-06T16:36:57.024Z,11.25
2023-03-06T16:39:24.553Z,13.60
2023-03-06T16:41:52.574Z,10.52
2023-03-06T16:44:21.176Z,8.38
2023-03-06T16:46:50.105Z,10.88
2023-03-06T16:49:22.828Z,9.73
2023-03-06T16:51:50.999Z,10.73
2023-03-06T16:54:18.740Z,9.38
2023-03-06T16:56:46.317Z,11.02
2023-03-06T16:59:13.786Z,13.15
2023-03-06T17:01:44.814Z,15.52
2023-03-06T17:04:12.246Z,8.98
2023-03-06T17:06:39.874Z,17.30
2023-03-06T17:09:07.318Z,16.33
2023-03-06T17:11:38.671Z,15.27
2023-03-06T17:14:07.052Z,10.25
2023-03-06T17:16:37.167Z,10.23
2023-03-06T17:19:04.427Z,16.48
2023-03-06T17:21:31.502Z,10.38
2023-03-06T17:23:58.641Z,11.40
2023-03-06T17:26:25.889Z,9.30
2023-03-06T17:28:52.895Z,11.30
2023-03-06T17:31:25.578Z,11.70
2023-03-06T17:34:00.489Z,8.55
2023-03-06T17:36:28.646Z,11.27
2023-03-06T17:38:57.688Z,9.95
2023-03-06T17:41:25.361Z,12.13
2023-03-06T17:43:55.192Z,9.30
2023-03-06T17:46:22.416Z,10.48
2023-03-06T17:48:49.615Z,10.32
2023-03-06T17:51:16.953Z,9.52
2023-03-06T17:53:44.181Z,12.40
2023-03-06T17:56:13.427Z,12.13
2023-03-06T17:58:40.478Z,14.10
2023-03-06T18:01:15.469Z,10.48
2023-03-06T18:03:48.048Z,19.85
2023-03-06T18:06:16.465Z,9.23
2023-03-06T18:08:44.351Z,7.20
2023-03-06T18:11:12.105Z,10.60
2023-03-06T18:13:42.681Z,8.30
2023-03-06T18:16:12.576Z,9.48
2023-03-06T18:18:39.952Z,9.90
2023-03-06T18:21:09.349Z,9.70
2023-03-06T18:23:37.680Z,10.85
2023-03-06T18:26:16.714Z,10.02
2023-03-06T18:28:46.656Z,10.00
2023-03-06T18:31:45.561Z,9.30
2023-03-06T18:34:14.843Z,9.13
2023-03-06T18:36:48.478Z,7.20
2023-03-06T18:39:16.076Z,11.32
2023-03-06T18:41:43.355Z,9.10
2023-03-06T18:44:14.493Z,8.80
2023-03-06T18:46:41.637Z,7.13
2023-03-06T18:49:09.097Z,7.88
2023-03-06T18:51:36.184Z,9.85
2023-03-06T18:54:05.970Z,9.48
2023-03-06T18:56:33.806Z,11.32
2023-03-06T18:59:05.571Z,9.10
2023-03-06T19:01:33.305Z,8.93
2023-03-06T19:04:02.327Z,6.40
2023-03-06T19:06:29.855Z,8.82
2023-03-06T19:09:01.622Z,8.60
2023-03-06T19:11:29.424Z,7.28
2023-03-06T19:13:56.614Z,6.43
2023-03-06T19:16:25.921Z,9.40
2023-03-06T19:18:57.475Z,10.32
2023-03-06T19:21:30.886Z,11.45
2023-03-06T19:23:58.638Z,8.88
2023-03-06T19:26:28.168Z,13.82
2023-03-06T19:28:55.302Z,9.48
2023-03-06T19:31:27.366Z,8.25
2023-03-06T19:33:56.717Z,10.15
2023-03-06T19:36:33.667Z,7.75
2023-03-06T19:39:05.823Z,7.22
2023-03-06T19:41:33.808Z,10.13
2023-03-06T19:44:06.436Z,7.38
2023-03-06T19:46:34.727Z,8.00
2023-03-06T19:49:05.775Z,10.90
2023-03-06T19:51:32.876Z,10.43
2023-03-06T19:53:59.882Z,8.40
2023-03-06T19:56:29.385Z,7.38
2023-03-06T19:58:56.578Z,9.98
2023-03-06T20:01:26.478Z,7.07
2023-03-06T20:03:59.071Z,9.27
2023-03-06T20:06:30.320Z,10.32
2023-03-06T20:08:57.604Z,12.32
2023-03-06T20:11:27.020Z,15.65
2023-03-06T20:13:54.454Z,11.35
2023-03-06T20:16:21.562Z,12.23
2023-03-06T20:18:48.684Z,9.93
2023-03-06T20:21:15.956Z,10.95
2023-03-06T20:23:43.423Z,12.00
2023-03-06T20:26:12.445Z,11.40
2023-03-06T20:28:47.579Z,9.75
2023-03-06T20:31:19.989Z,16.00
2023-03-06T20:33:50.143Z,7.85
2023-03-06T20:36:25.261Z,8.75
2023-03-06T20:38:52.338Z,6.07
2023-03-06T20:41:22.145Z,9.25
2023-03-06T20:43:49.950Z,16.15
2023-03-06T20:46:21.131Z,8.65
2023-03-06T20:48:50.076Z,8.43
2023-03-06T20:51:19.980Z,6.80
2023-03-06T20:53:48.086Z,18.92
2023-03-06T20:56:17.779Z,13.25
2023-03-06T20:58:44.993Z,11.60
2023-03-06T21:01:38.534Z,8.70
2023-03-06T21:04:05.589Z,7.03
2023-03-06T21:06:33.173Z,10.88
2023-03-06T21:09:01.361Z,10.05
2023-03-06T21:11:28.877Z,9.00
2023-03-06T21:13:56.477Z,9.57
2023-03-06T21:16:26.482Z,7.38
2023-03-06T21:18:58.051Z,8.30
2023-03-06T21:21:28.867Z,8.30
2023-03-06T21:23:56.152Z,10.30
2023-03-06T21:26:26.068Z,8.90
2023-03-06T21:28:53.434Z,13.30
2023-03-06T21:31:21.821Z,12.52
2023-03-06T21:33:50.281Z,10.20
2023-03-06T21:36:19.240Z,9.75
2023-03-06T21:38:47.649Z,14.07
2023-03-06T21:41:18.064Z,20.38
2023-03-06T21:43:45.429Z,18.70
2023-03-06T21:46:12.713Z,12.88
2023-03-06T21:48:39.829Z,9.60
2023-03-06T21:51:12.574Z,10.15
2023-03-06T21:53:43.372Z,7.85
2023-03-06T21:56:11.597Z,12.27
2023-03-06T21:58:39.326Z,7.75
2023-03-06T22:01:11.342Z,13.40
2023-03-06T22:03:38.839Z,9.07
2023-03-06T22:06:26.115Z,10.15
2023-03-06T22:08:55.197Z,9.75
2023-03-06T22:11:24.033Z,9.95
2023-03-06T22:13:53.372Z,17.02
2023-03-06T22:16:21.116Z,13.77
2023-03-06T22:18:49.951Z,8.25
2023-03-06T22:21:19.722Z,15.23
2023-03-06T22:23:51.965Z,8.52
2023-03-06T22:26:19.831Z,12.65
2023-03-06T22:28:47.212Z,10.70
2023-03-06T22:31:17.086Z,9.73
2023-03-06T22:33:44.342Z,7.15
2023-03-06T22:36:15.117Z,7.82
2023-03-06T22:38:44.204Z,12.32
2023-03-06T22:41:16.858Z,10.85
2023-03-06T22:43:44.364Z,8.52
2023-03-06T22:46:16.263Z,12.18
2023-03-06T22:48:44.318Z,16.42
2023-03-06T22:51:18.246Z,17.25
2023-03-06T22:53:46.548Z,14.65
2023-03-06T22:56:20.396Z,11.30
2023-03-06T22:58:48.406Z,13.23
2023-03-06T23:01:20.835Z,8.10
2023-03-06T23:03:50.450Z,8.25
2023-03-06T23:06:23.027Z,7.32
2023-03-06T23:08:55.923Z,12.32
2023-03-06T23:11:23.612Z,28.15
2023-03-06T23:14:12.248Z,9.60
2023-03-06T23:16:58.229Z,8.60
2023-03-06T23:19:44.138Z,7.80
2023-03-06T23:22:29.909Z,10.25
2023-03-06T23:25:15.955Z,7.57
2023-03-06T23:27:43.005Z,10.98
2023-03-06T23:30:10.893Z,7.47
2023-03-06T23:32:38.116Z,7.68
2023-03-06T23:35:05.442Z,6.97
2023-03-06T23:37:32.553Z,6.95
2023-03-06T23:40:01.648Z,7.70
2023-03-06T23:42:28.667Z,10.10
2023-03-06T23:45:03.398Z,10.65
2023-03-06T23:50:00.725Z,18.10
2023-03-06T23:52:27.877Z,8.90
2023-03-06T23:54:54.924Z,10.55
2023-03-06T23:57:22.134Z,12.07
2023-03-06T23:59:49.235Z,7.68
